createdAt,value
2016-11-18T00:00:42.571Z,90.04
2016-11-18T00:01:51.199Z,88.85
2016-11-18T00:03:00.645Z,88.42
2016-11-18T00:04:09.266Z,88.9
2016-11-18T00:05:17.873Z,89.28
2016-11-18T00:06:26.819Z,88.71
2016-11-18T00:07:35.761Z,88.8
2016-11-18T00:08:44.741Z,88.71
2016-11-18T00:09:53.677Z,89.09
2016-11-18T00:11:02.617Z,89.23
2016-11-18T00:12:11.237Z,89.09
2016-11-18T00:13:20.167Z,88.66
2016-11-18T00:14:29.458Z,89.09
2016-11-18T00:15:38.398Z,88.42
2016-11-18T00:16:47.656Z,88.9
2016-11-18T00:17:56.920Z,88.33
2016-11-18T00:19:06.184Z,89.09
2016-11-18T00:20:15.457Z,88.71
2016-11-18T00:21:24.770Z,89.18
2016-11-18T00:22:33.375Z,89
2016-11-18T00:23:42.310Z,88.52
2016-11-18T00:24:51.239Z,89
2016-11-18T00:26:00.284Z,88.8
2016-11-18T00:27:08.905Z,88.52
2016-11-18T00:28:18.169Z,88.42
2016-11-18T00:29:27.433Z,89.09
2016-11-18T00:30:36.370Z,88.8
2016-11-18T00:31:45.650Z,88.23
2016-11-18T00:32:54.597Z,87.95
2016-11-18T00:34:03.526Z,87.76
2016-11-18T00:35:12.479Z,87.66
2016-11-18T00:36:21.738Z,87.52
2016-11-18T00:37:30.797Z,87.42
2016-11-18T00:38:39.411Z,88.04
2016-11-18T00:39:48.356Z,88.04
2016-11-18T00:40:56.981Z,88.23
2016-11-18T00:42:05.584Z,88.13
2016-11-18T00:43:15.233Z,87.8
2016-11-18T00:44:23.863Z,88.66
2016-11-18T00:45:33.479Z,88.8
2016-11-18T00:46:42.416Z,88.61
2016-11-18T00:47:51.034Z,88.8
2016-11-18T00:49:00.318Z,87.85
2016-11-18T00:50:09.253Z,88.13
2016-11-18T00:51:17.854Z,88.04
2016-11-18T00:52:26.471Z,87.19
2016-11-18T00:53:35.400Z,87.66
2016-11-18T00:54:44.742Z,88.23
2016-11-18T00:55:53.683Z,87.95
2016-11-18T00:57:02.293Z,87.85
2016-11-18T00:58:11.281Z,87.85
2016-11-18T00:59:20.231Z,87.95
2016-11-18T01:00:29.513Z,88.8
2016-11-18T01:01:38.784Z,88.23
2016-11-18T01:02:48.060Z,88.04
2016-11-18T01:03:57.007Z,87.95
2016-11-18T01:05:05.941Z,87.47
2016-11-18T01:06:15.565Z,87.85
2016-11-18T01:07:24.513Z,87.95
2016-11-18T01:08:33.125Z,86.99
2016-11-18T01:09:42.380Z,87.95
2016-11-18T01:10:50.996Z,86.9
2016-11-18T01:12:00.037Z,86.18
2016-11-18T01:13:08.646Z,86.94
2016-11-18T01:14:17.905Z,86.99
2016-11-18T01:15:27.170Z,86.99
2016-11-18T01:16:35.797Z,87.85
2016-11-18T01:17:45.102Z,87.85
2016-11-18T01:18:54.040Z,87.09
2016-11-18T01:20:02.666Z,86.66
2016-11-18T01:21:11.595Z,86.28
2016-11-18T01:22:20.848Z,86.43
2016-11-18T01:23:30.230Z,87.09
2016-11-18T01:24:39.169Z,86.9
2016-11-18T01:25:48.438Z,87.47
2016-11-18T01:26:57.050Z,87.09
2016-11-18T01:28:05.667Z,87.09
2016-11-18T01:29:14.636Z,86.66
2016-11-18T01:30:23.262Z,86.57
2016-11-18T01:31:31.920Z,86.43
2016-11-18T01:32:40.863Z,86.33
2016-11-18T01:33:49.811Z,87.04
2016-11-18T01:34:58.851Z,87.28
2016-11-18T01:36:07.479Z,87.38
2016-11-18T01:37:16.417Z,87.13
2016-11-18T01:38:25.353Z,87.23
2016-11-18T01:39:34.611Z,87.32
2016-11-18T01:40:43.896Z,87.04
2016-11-18T01:41:52.508Z,86.38
2016-11-18T01:43:01.462Z,86.57
2016-11-18T01:44:10.727Z,87.19
2016-11-18T01:45:19.345Z,86.85
2016-11-18T01:46:28.751Z,86.99
2016-11-18T01:47:38.020Z,87.19
2016-11-18T01:48:46.968Z,86.9
2016-11-18T01:49:55.915Z,86.8
2016-11-18T01:51:04.869Z,86.57
2016-11-18T01:52:14.481Z,86.99
2016-11-18T01:53:23.097Z,86.94
2016-11-18T01:54:32.029Z,86.47
2016-11-18T01:55:41.278Z,85.52
2016-11-18T01:56:50.209Z,85.9
2016-11-18T01:57:58.883Z,85.52
2016-11-18T01:59:07.490Z,86.94
2016-11-18T02:00:16.756Z,86.99
2016-11-18T02:01:25.377Z,86.28
2016-11-18T02:02:34.362Z,85.99
2016-11-18T02:03:44.051Z,86.66
2016-11-18T02:04:53.002Z,86.57
2016-11-18T02:06:02.295Z,85.9
2016-11-18T02:07:11.236Z,86.66
2016-11-18T02:08:20.507Z,86.66
2016-11-18T02:09:29.905Z,86.47
2016-11-18T02:10:38.839Z,86.38
2016-11-18T02:11:47.808Z,85.61
2016-11-18T02:12:56.757Z,86.28
2016-11-18T02:14:05.372Z,86.18
2016-11-18T02:15:14.764Z,85.9
2016-11-18T02:16:23.699Z,86.28
2016-11-18T02:17:32.324Z,85.8
2016-11-18T02:18:41.279Z,85.9
2016-11-18T02:19:50.236Z,85.9
2016-11-18T02:20:58.957Z,85.8
2016-11-18T02:22:07.573Z,86.47
2016-11-18T02:23:16.186Z,87.04
2016-11-18T02:24:24.790Z,86.09
2016-11-18T02:25:34.058Z,86.47
2016-11-18T02:26:43.392Z,87.04
2016-11-18T02:27:52.014Z,87.38
2016-11-18T02:29:01.633Z,87.52
2016-11-18T02:30:10.582Z,87.13
2016-11-18T02:31:19.211Z,87.42
2016-11-18T02:32:28.504Z,87.47
2016-11-18T02:33:37.122Z,88.04
2016-11-18T02:34:46.419Z,87.71
2016-11-18T02:35:55.675Z,87.42
2016-11-18T02:37:04.613Z,87.23
2016-11-18T02:38:13.978Z,87.57
2016-11-18T02:39:22.962Z,87.13
2016-11-18T02:40:31.895Z,86.94
2016-11-18T02:41:41.475Z,86.38
2016-11-18T02:42:50.409Z,87.42
2016-11-18T02:43:59.742Z,86.38
2016-11-18T02:45:09.007Z,87.04
2016-11-18T02:46:17.944Z,86.94
2016-11-18T02:47:26.888Z,87.19
2016-11-18T02:48:35.834Z,87.04
2016-11-18T02:49:44.815Z,87.13
2016-11-18T02:50:53.438Z,86.47
2016-11-18T02:52:02.695Z,85.9
2016-11-18T02:53:11.322Z,86.47
2016-11-18T02:54:20.258Z,85.99
2016-11-18T02:55:29.255Z,86.09
2016-11-18T02:56:37.882Z,86.47
2016-11-18T02:57:47.158Z,87.13
2016-11-18T02:58:55.777Z,87.23
2016-11-18T03:00:05.364Z,85.99
2016-11-18T03:01:14.667Z,86.28
2016-11-18T03:02:23.277Z,85.61
2016-11-18T03:03:32.204Z,86.09
2016-11-18T03:04:41.473Z,85.61
2016-11-18T03:05:50.725Z,85.71
2016-11-18T03:07:00.387Z,86.76
2016-11-18T03:08:09.970Z,85.95
2016-11-18T03:09:19.222Z,86.52
2016-11-18T03:10:28.163Z,85.61
2016-11-18T03:11:36.778Z,86.38
2016-11-18T03:12:46.019Z,85.76
2016-11-18T03:13:54.639Z,85.52
2016-11-18T03:15:03.578Z,86.47
2016-11-18T03:16:12.200Z,86.94
2016-11-18T03:17:21.468Z,85.99
2016-11-18T03:18:30.856Z,85.33
2016-11-18T03:19:39.789Z,86.18
2016-11-18T03:20:48.721Z,85.8
2016-11-18T03:21:57.657Z,86.28
2016-11-18T03:23:07.578Z,85.86
2016-11-18T03:24:16.566Z,85.9
2016-11-18T03:25:25.810Z,85.61
2016-11-18T03:26:34.758Z,85.33
2016-11-18T03:27:43.692Z,85.14
2016-11-18T03:28:52.635Z,85.33
2016-11-18T03:30:02.272Z,84.95
2016-11-18T03:31:11.229Z,85.61
2016-11-18T03:32:19.853Z,84.85
2016-11-18T03:33:28.802Z,85.14
2016-11-18T03:34:37.746Z,84.28
2016-11-18T03:35:46.780Z,84.66
2016-11-18T03:36:56.049Z,84.66
2016-11-18T03:38:04.662Z,84.66
2016-11-18T03:39:13.310Z,85.24
2016-11-18T03:40:22.245Z,85.14
2016-11-18T03:41:31.853Z,84.76
2016-11-18T03:42:40.799Z,85.04
2016-11-18T03:43:49.741Z,84.09
2016-11-18T03:44:58.355Z,84.47
2016-11-18T03:46:06.977Z,83.33
2016-11-18T03:47:16.308Z,83.33
2016-11-18T03:48:25.578Z,83.33
2016-11-18T03:49:34.513Z,82.48
2016-11-18T03:50:43.446Z,83.14
2016-11-18T03:51:52.071Z,83.14
2016-11-18T03:53:01.460Z,83.33
2016-11-18T03:54:10.409Z,83.71
2016-11-18T03:55:19.022Z,83.9
2016-11-18T03:56:27.641Z,84.09
2016-11-18T03:57:36.941Z,84.47
2016-11-18T03:58:45.907Z,83.81
2016-11-18T03:59:54.834Z,84.19
2016-11-18T04:01:04.117Z,83.71
2016-11-18T04:02:12.739Z,84.66
2016-11-18T04:03:21.682Z,85
2016-11-18T04:04:30.981Z,85.95
2016-11-18T04:05:40.594Z,85.19
2016-11-18T04:06:49.219Z,84.66
2016-11-18T04:07:58.158Z,84.91
2016-11-18T04:09:07.095Z,84.05
2016-11-18T04:10:15.765Z,84.28
2016-11-18T04:11:24.384Z,84.28
2016-11-18T04:12:33.630Z,84
2016-11-18T04:13:42.256Z,85.1
2016-11-18T04:14:51.197Z,85
2016-11-18T04:15:59.859Z,85.28
2016-11-18T04:17:08.801Z,85.28
2016-11-18T04:18:17.755Z,85.28
2016-11-18T04:19:26.700Z,85.57
2016-11-18T04:20:35.637Z,85.1
2016-11-18T04:21:44.693Z,85.86
2016-11-18T04:22:53.639Z,85.66
2016-11-18T04:24:02.598Z,86.14
2016-11-18T04:25:11.862Z,86.05
2016-11-18T04:26:21.111Z,85.86
2016-11-18T04:27:30.090Z,85.66
2016-11-18T04:28:39.041Z,86.43
2016-11-18T04:29:48.303Z,86.24
2016-11-18T04:30:57.565Z,86.33
2016-11-18T04:32:07.148Z,86.43
2016-11-18T04:33:16.159Z,86.24
2016-11-18T04:34:25.094Z,86.14
2016-11-18T04:35:34.045Z,86.24
2016-11-18T04:36:42.662Z,86.33
2016-11-18T04:37:51.595Z,86.05
2016-11-18T04:39:00.609Z,86.43
2016-11-18T04:40:09.545Z,85.95
2016-11-18T04:41:18.482Z,85.95
2016-11-18T04:42:27.095Z,85.95
2016-11-18T04:43:36.033Z,86.61
2016-11-18T04:44:45.377Z,85.95
2016-11-18T04:45:53.995Z,85.47
2016-11-18T04:47:02.604Z,85.38
2016-11-18T04:48:11.219Z,86.14
2016-11-18T04:49:19.818Z,86.47
2016-11-18T04:50:29.109Z,86.86
2016-11-18T04:51:38.058Z,86.95
2016-11-18T04:52:47.002Z,86.95
2016-11-18T04:53:56.316Z,87.05
2016-11-18T04:55:05.590Z,87.05
2016-11-18T04:56:14.665Z,87.43
2016-11-18T04:57:23.941Z,87.81
2016-11-18T04:58:32.570Z,86.86
2016-11-18T04:59:41.515Z,87.52
2016-11-18T05:00:50.462Z,87.43
2016-11-18T05:01:59.812Z,86.95
2016-11-18T05:03:09.097Z,87.43
2016-11-18T05:04:18.693Z,86.95
2016-11-18T05:05:27.308Z,86.86
2016-11-18T05:06:36.245Z,86.86
2016-11-18T05:07:45.281Z,86.1
2016-11-18T05:08:54.235Z,86.95
2016-11-18T05:10:03.506Z,86.95
2016-11-18T05:11:12.767Z,87.34
2016-11-18T05:12:22.011Z,86.95
2016-11-18T05:13:31.720Z,88.19
2016-11-18T05:14:40.977Z,87.62
2016-11-18T05:15:50.256Z,87.24
2016-11-18T05:16:59.521Z,87.52
2016-11-18T05:18:08.456Z,87.24
2016-11-18T05:19:17.520Z,86.86
2016-11-18T05:20:26.781Z,87.43
2016-11-18T05:21:35.411Z,87.24
2016-11-18T05:22:44.029Z,87.71
2016-11-18T05:23:52.978Z,87.14
2016-11-18T05:25:01.980Z,87.43
2016-11-18T05:26:10.934Z,87.14
2016-11-18T05:27:19.874Z,87.14
2016-11-18T05:28:28.809Z,85.81
2016-11-18T05:29:37.416Z,86.05
2016-11-18T05:30:46.404Z,85.76
2016-11-18T05:31:55.350Z,86.1
2016-11-18T05:33:04.322Z,84.95
2016-11-18T05:34:13.246Z,85.95
2016-11-18T05:35:22.505Z,85.24
2016-11-18T05:36:31.550Z,85.81
2016-11-18T05:37:40.817Z,85.91
2016-11-18T05:38:49.757Z,85.43
2016-11-18T05:39:58.361Z,85.72
2016-11-18T05:41:07.291Z,85.72
2016-11-18T05:42:16.590Z,85.72
2016-11-18T05:43:25.854Z,86.29
2016-11-18T05:44:34.803Z,86.86
2016-11-18T05:45:43.768Z,86.95
2016-11-18T05:46:52.420Z,86.19
2016-11-18T05:48:01.082Z,86.67
2016-11-18T05:49:09.708Z,86.1
2016-11-18T05:50:18.650Z,86.29
2016-11-18T05:51:27.926Z,86.19
2016-11-18T05:52:37.173Z,85.81
2016-11-18T05:53:46.138Z,85.24
2016-11-18T05:54:55.093Z,85.62
2016-11-18T05:56:04.016Z,86
2016-11-18T05:57:13.321Z,86.47
2016-11-18T05:58:22.287Z,85.58
2016-11-18T06:02:02.884Z,84.86
2016-11-18T06:03:11.494Z,85.53
2016-11-18T06:04:20.738Z,85.34
2016-11-18T06:07:42.504Z,84.58
2016-11-18T06:08:51.119Z,84.01
2016-11-18T06:10:00.385Z,84.48
2016-11-18T06:11:09.099Z,84.95
2016-11-18T06:12:18.042Z,85.2
2016-11-18T06:13:27.298Z,85.01
2016-11-18T06:14:36.234Z,84.63
2016-11-18T06:15:45.489Z,84.34
2016-11-18T06:16:54.823Z,83.78
2016-11-18T06:18:03.422Z,84.34
2016-11-18T06:19:12.354Z,84.25
2016-11-18T06:20:21.622Z,84.06
2016-11-18T06:21:30.573Z,84.16
2016-11-18T06:22:39.915Z,84.34
2016-11-18T06:23:48.521Z,84.06
2016-11-18T06:24:57.773Z,83.97
2016-11-18T06:26:06.402Z,84.44
2016-11-18T06:27:15.662Z,84.34
2016-11-18T06:28:24.649Z,84.82
2016-11-18T06:29:33.575Z,83.87
2016-11-18T06:30:42.523Z,84.06
2016-11-18T06:31:51.799Z,84.63
2016-11-18T06:33:00.423Z,84.63
2016-11-18T06:34:09.385Z,84.91
2016-11-18T06:35:18.639Z,84.72
2016-11-18T06:36:27.905Z,84.63
2016-11-18T06:37:37.153Z,84.44
2016-11-18T06:38:46.422Z,84.91
2016-11-18T06:39:55.124Z,85.2
2016-11-18T06:41:04.399Z,85.2
2016-11-18T06:42:13.055Z,84.91
2016-11-18T06:43:22.322Z,84.82
2016-11-18T06:44:30.946Z,84.53
2016-11-18T06:45:39.910Z,84.91
2016-11-18T06:46:48.532Z,84.91
2016-11-18T06:47:57.804Z,84.72
2016-11-18T06:49:07.080Z,84.82
2016-11-18T06:50:16.037Z,84.72
2016-11-18T06:51:25.648Z,84.82
2016-11-18T06:52:34.667Z,85.39
2016-11-18T06:53:43.263Z,84.63
2016-11-18T06:54:51.899Z,84.25
2016-11-18T06:56:00.512Z,84.77
2016-11-18T06:57:10.072Z,83.68
2016-11-18T06:58:18.995Z,83.62
2016-11-18T06:59:27.936Z,83.15
2016-11-18T07:00:36.551Z,84.16
2016-11-18T07:01:45.481Z,83.53
2016-11-18T07:02:55.507Z,84.06
2016-11-18T07:04:04.426Z,84.2
2016-11-18T07:05:13.061Z,84.25
2016-11-18T07:06:22.004Z,84.44
2016-11-18T07:07:30.955Z,84.48
2016-11-18T07:08:39.606Z,84.91
2016-11-18T07:09:48.211Z,84.91
2016-11-18T07:10:57.471Z,84.53
2016-11-18T07:12:06.102Z,84.34
2016-11-18T07:13:15.381Z,84.53
2016-11-18T07:14:24.028Z,84.25
2016-11-18T07:15:32.970Z,83.91
2016-11-18T07:16:42.231Z,85.3
2016-11-18T07:17:51.182Z,85.3
2016-11-18T07:19:00.434Z,84.53
2016-11-18T07:20:09.837Z,85.2
2016-11-18T07:21:19.084Z,83.78
2016-11-18T07:22:28.352Z,83.72
2016-11-18T07:23:37.282Z,83.49
2016-11-18T07:24:46.531Z,83.34
2016-11-18T07:25:56.082Z,83.53
2016-11-18T07:27:05.029Z,83.53
2016-11-18T07:28:13.643Z,84.2
2016-11-18T07:29:22.263Z,84.25
2016-11-18T07:30:31.214Z,84.72
2016-11-18T07:31:40.532Z,84.63
2016-11-18T07:32:49.481Z,85.11
2016-11-18T07:33:58.093Z,85.01
2016-11-18T07:35:06.710Z,84.06
2016-11-18T07:36:15.977Z,84.44
2016-11-18T07:37:24.971Z,83.97
2016-11-18T07:38:33.905Z,85.01
2016-11-18T07:39:43.501Z,84.53
2016-11-18T07:40:52.121Z,85.01
2016-11-18T07:42:01.426Z,85.01
2016-11-18T07:43:11.112Z,83.68
2016-11-18T07:44:19.726Z,83.25
2016-11-18T07:45:28.660Z,84.48
2016-11-18T07:46:37.614Z,84.34
2016-11-18T07:47:46.886Z,83.87
2016-11-18T07:48:55.922Z,83.62
2016-11-18T07:50:04.845Z,83.82
2016-11-18T07:51:14.123Z,84.01
2016-11-18T07:52:23.385Z,84.44
2016-11-18T07:53:32.640Z,84.16
2016-11-18T07:54:42.037Z,84.53
2016-11-18T07:55:51.346Z,84.34
2016-11-18T07:57:00.612Z,83.59
2016-11-18T07:58:09.220Z,84.1
2016-11-18T07:59:18.159Z,82.77
2016-11-18T08:00:27.124Z,83.15
2016-11-18T08:01:36.066Z,83.06
2016-11-18T08:02:45.033Z,83.44
2016-11-18T08:03:54.302Z,82.39
2016-11-18T08:05:03.556Z,82.77
2016-11-18T08:06:12.531Z,82.96
2016-11-18T08:07:21.137Z,82.29
2016-11-18T08:08:30.109Z,81.73
2016-11-18T08:09:38.733Z,81.82
2016-11-18T08:10:48.326Z,81.35
2016-11-18T08:11:57.615Z,81.92
2016-11-18T08:13:06.565Z,82.39
2016-11-18T08:14:15.191Z,82.1
2016-11-18T08:15:24.146Z,82.2
2016-11-18T08:16:33.084Z,82.01
2016-11-18T08:17:41.743Z,81.92
2016-11-18T08:18:50.677Z,81.35
2016-11-18T08:19:59.921Z,81.06
2016-11-18T08:21:08.531Z,81.44
2016-11-18T08:22:18.117Z,80.91
2016-11-18T08:23:26.835Z,80.68
2016-11-18T08:24:36.155Z,80.53
2016-11-18T08:25:45.097Z,79.77
2016-11-18T08:26:54.682Z,79.73
2016-11-18T08:28:03.294Z,79.96
2016-11-18T08:29:12.331Z,79.92
2016-11-18T08:30:21.259Z,79.68
2016-11-18T08:31:30.197Z,78.44
2016-11-18T08:32:39.176Z,79.11
2016-11-18T08:33:48.757Z,79.49
2016-11-18T08:34:57.728Z,79.11
2016-11-18T08:36:06.988Z,78.63
2016-11-18T08:37:16.251Z,79.58
2016-11-18T08:38:24.870Z,79.01
2016-11-18T08:39:33.820Z,79.11
2016-11-18T08:40:43.114Z,80.05
2016-11-18T08:41:52.042Z,79.49
2016-11-18T08:43:00.982Z,79.11
2016-11-18T08:44:10.578Z,78.63
2016-11-18T08:45:19.208Z,79.11
2016-11-18T08:46:28.503Z,79.58
2016-11-18T08:47:37.432Z,79.25
2016-11-18T08:48:46.375Z,78.44
2016-11-18T08:49:55.001Z,78.34
2016-11-18T08:51:03.937Z,80.05
2016-11-18T08:52:13.345Z,79.58
2016-11-18T08:53:22.324Z,79.49
2016-11-18T08:54:32.140Z,79.11
2016-11-18T08:55:41.088Z,80.05
2016-11-18T08:56:49.721Z,80.02
2016-11-18T08:57:59.051Z,79.68
2016-11-18T08:59:07.678Z,78.82
2016-11-18T09:00:16.646Z,78.16
2016-11-18T09:01:25.938Z,79.3
2016-11-18T09:02:35.564Z,80.05
2016-11-18T09:03:44.912Z,80.24
2016-11-18T09:04:53.868Z,80.05
2016-11-18T09:06:02.798Z,79.96
2016-11-18T09:07:11.742Z,79.86
2016-11-18T09:08:20.685Z,80.63
2016-11-18T09:09:29.996Z,80.91
2016-11-18T09:10:39.037Z,80.91
2016-11-18T09:11:48.684Z,80.63
2016-11-18T09:12:57.311Z,80.82
2016-11-18T09:14:06.289Z,80.91
2016-11-18T09:15:14.915Z,80.82
2016-11-18T09:16:23.536Z,80.53
2016-11-18T09:17:32.792Z,80.72
2016-11-18T09:18:41.443Z,79.77
2016-11-18T09:19:50.357Z,79.68
2016-11-18T09:20:59.309Z,79.77
2016-11-18T09:22:08.602Z,79.11
2016-11-18T09:23:18.201Z,79.39
2016-11-18T09:24:27.173Z,78.91
2016-11-18T09:25:36.473Z,78.44
2016-11-18T09:26:45.085Z,77.91
2016-11-18T09:27:54.360Z,78.1
2016-11-18T09:29:03.622Z,76.86
2016-11-18T09:30:12.887Z,77.62
2016-11-18T09:31:22.178Z,76.2
2016-11-18T09:32:31.758Z,76.14
2016-11-18T09:33:41.019Z,76.67
2016-11-18T09:34:49.967Z,76.23
2016-11-18T09:35:58.914Z,77.28
2016-11-18T09:37:08.278Z,79.05
2016-11-18T09:38:17.216Z,77.91
2016-11-18T09:39:26.801Z,77.81
2016-11-18T09:40:35.790Z,78.29
2016-11-18T09:41:44.723Z,78.91
2016-11-18T09:42:53.452Z,79.01
2016-11-18T09:44:02.382Z,79.01
2016-11-18T09:45:11.635Z,78.72
2016-11-18T09:46:20.263Z,79.11
2016-11-18T09:47:29.224Z,78.91
2016-11-18T09:48:38.618Z,78.86
2016-11-18T09:49:47.894Z,78.82
2016-11-18T09:50:56.855Z,78.63
2016-11-18T09:52:06.117Z,79.3
2016-11-18T09:53:14.716Z,79.05
2016-11-18T09:54:24.707Z,78.34
2016-11-18T09:55:33.657Z,78.06
2016-11-18T09:56:42.600Z,78.86
2016-11-18T09:57:51.551Z,78.63
2016-11-18T09:59:00.815Z,78.82
2016-11-18T10:00:10.131Z,78.63
2016-11-18T10:01:19.382Z,77.87
2016-11-18T10:02:28.655Z,78.63
2016-11-18T10:03:37.573Z,78.63
2016-11-18T10:04:46.198Z,78.25
2016-11-18T10:05:55.256Z,78.44
2016-11-18T10:07:03.880Z,78.91
2016-11-18T10:08:12.504Z,78.72
2016-11-18T10:09:21.766Z,78.38
2016-11-18T10:10:31.051Z,78.38
2016-11-18T10:11:40.371Z,78.91
2016-11-18T10:12:49.307Z,78.72
2016-11-18T10:13:57.915Z,77.34
2016-11-18T10:15:06.863Z,77.34
2016-11-18T10:16:15.803Z,78.1
2016-11-18T10:17:25.174Z,78.82
2016-11-18T10:18:34.124Z,78.72
2016-11-18T10:19:42.735Z,77.72
2016-11-18T10:20:51.693Z,76.76
2016-11-18T10:22:00.297Z,76.76
2016-11-18T10:23:09.264Z,77.72
2016-11-18T10:24:17.872Z,77.34
2016-11-18T10:25:27.439Z,77.53
2016-11-18T10:26:36.368Z,77.34
2016-11-18T10:27:45.624Z,77.34
2016-11-18T10:28:54.955Z,77.43
2016-11-18T10:30:03.563Z,77.43
2016-11-18T10:31:12.166Z,76.29
2016-11-18T10:32:21.446Z,76.86
2016-11-18T10:33:30.735Z,76.39
2016-11-18T10:34:39.417Z,77.19
2016-11-18T10:35:48.369Z,76.67
2016-11-18T10:36:57.329Z,77.24
2016-11-18T10:38:06.595Z,77.53
2016-11-18T10:39:15.868Z,76.67
2016-11-18T10:40:25.209Z,77.15
2016-11-18T10:41:34.164Z,77.15
2016-11-18T10:42:42.782Z,77.15
2016-11-18T10:43:51.427Z,77.81
2016-11-18T10:45:00.408Z,76.86
2016-11-18T10:46:09.383Z,75.57
2016-11-18T10:47:18.313Z,76.14
2016-11-18T10:48:27.250Z,76.1
2016-11-18T10:49:36.198Z,75.95
2016-11-18T10:50:45.137Z,76.67
2016-11-18T10:51:54.097Z,76.39
2016-11-18T10:53:03.340Z,76.2
2016-11-18T10:54:12.594Z,76.01
2016-11-18T10:55:21.260Z,76.76
2016-11-18T10:56:30.194Z,76.96
2016-11-18T10:57:39.800Z,76.76
2016-11-18T10:58:48.417Z,76.71
2016-11-18T10:59:57.655Z,76.01
2016-11-18T11:01:06.270Z,76.42
2016-11-18T11:02:15.212Z,76.42
2016-11-18T11:03:24.245Z,76.29
2016-11-18T11:04:32.868Z,76.39
2016-11-18T11:05:42.106Z,76.39
2016-11-18T11:06:51.042Z,75.76
2016-11-18T11:07:59.647Z,76.14
2016-11-18T11:09:09.436Z,76.57
2016-11-18T11:10:18.057Z,77
2016-11-18T11:11:27.008Z,76.67
2016-11-18T11:12:35.971Z,76.23
2016-11-18T11:13:44.591Z,76.04
2016-11-18T11:14:53.670Z,76.2
2016-11-18T11:16:02.617Z,76.57
2016-11-18T11:17:11.588Z,75.85
2016-11-18T11:18:20.220Z,75.76
2016-11-18T11:19:29.164Z,76.52
2016-11-18T11:20:38.542Z,76.61
2016-11-18T11:21:47.168Z,76.9
2016-11-18T11:22:56.120Z,76.39
2016-11-18T11:24:05.380Z,75.19
2016-11-18T11:25:14.004Z,76.61
2016-11-18T11:26:22.968Z,76.04
2016-11-18T11:27:31.593Z,75.57
2016-11-18T11:28:40.844Z,75.47
2016-11-18T11:29:49.807Z,74.43
2016-11-18T11:30:59.082Z,74.99
2016-11-18T11:32:08.373Z,75.28
2016-11-18T11:33:17.339Z,74.62
2016-11-18T11:34:26.341Z,74.8
2016-11-18T11:35:35.288Z,74.71
2016-11-18T11:36:44.600Z,74.52
2016-11-18T11:37:53.293Z,74.33
2016-11-18T11:39:01.915Z,75.19
2016-11-18T11:40:11.844Z,74.52
2016-11-18T11:41:20.473Z,75.19
2016-11-18T11:42:29.436Z,74.24
2016-11-18T11:43:38.850Z,73.47
2016-11-18T11:44:47.792Z,73.41
2016-11-18T11:45:56.746Z,72.71
2016-11-18T11:47:05.680Z,72.81
2016-11-18T11:48:14.908Z,73.57
2016-11-18T11:49:24.197Z,72.81
2016-11-18T11:50:33.813Z,72.85
2016-11-18T11:51:43.090Z,73.66
2016-11-18T11:52:52.048Z,73.1
2016-11-18T11:54:00.982Z,73.19
2016-11-18T11:55:10.404Z,73.19
2016-11-18T11:56:19.662Z,72.52
2016-11-18T11:57:28.283Z,72.42
2016-11-18T11:58:36.944Z,71.57
2016-11-18T11:59:45.553Z,70.33
2016-11-18T12:00:54.590Z,70.33
2016-11-18T12:02:03.211Z,70.05
2016-11-18T12:03:12.487Z,71.09
2016-11-18T12:04:21.429Z,71.09
2016-11-18T12:05:30.374Z,72.05
2016-11-18T12:06:39.733Z,71.28
2016-11-18T12:07:48.683Z,71.47
2016-11-18T12:08:57.644Z,70.62
2016-11-18T12:10:06.589Z,71.22
2016-11-18T12:11:15.537Z,71.76
2016-11-18T12:12:25.577Z,72.24
2016-11-18T12:13:34.519Z,72.52
2016-11-18T12:14:43.787Z,71.09
2016-11-18T12:15:52.719Z,71.47
2016-11-18T12:17:01.652Z,70.81
2016-11-18T12:18:11.064Z,71.19
2016-11-18T12:19:20.648Z,70.72
2016-11-18T12:20:29.604Z,71
2016-11-18T12:21:38.880Z,70.9
2016-11-18T12:22:47.500Z,70.9
2016-11-18T12:23:56.577Z,70.14
2016-11-18T12:25:06.150Z,70.52
2016-11-18T12:26:15.420Z,70.05
2016-11-18T12:27:24.043Z,70.05
2016-11-18T12:28:33.633Z,69.95
2016-11-18T12:29:42.307Z,70.24
2016-11-18T12:30:50.916Z,70.43
2016-11-18T12:31:59.856Z,70.52
2016-11-18T12:33:09.453Z,69.76
2016-11-18T12:34:18.719Z,70.33
2016-11-18T12:35:28.077Z,69.76
2016-11-18T12:36:36.692Z,69.76
2016-11-18T12:37:45.312Z,69.67
2016-11-18T12:38:54.263Z,70.24
2016-11-18T12:40:02.878Z,69.48
2016-11-18T12:41:11.895Z,70.33
2016-11-18T12:42:20.505Z,70.14
2016-11-18T12:43:29.126Z,70.05
2016-11-18T12:44:38.066Z,69.95
2016-11-18T12:45:47.332Z,70.14
2016-11-18T12:46:56.658Z,70.43
2016-11-18T12:48:05.605Z,70.14
2016-11-18T12:49:14.232Z,70.14
2016-11-18T12:50:23.159Z,70.05
2016-11-18T12:51:31.777Z,70.05
2016-11-18T12:52:41.068Z,70.05
2016-11-18T12:53:50.013Z,70.9
2016-11-18T12:54:58.957Z,70.72
2016-11-18T12:56:07.573Z,70.24
2016-11-18T12:57:16.520Z,70.14
2016-11-18T12:58:25.587Z,70.52
2016-11-18T12:59:34.210Z,69.95
2016-11-18T13:00:43.478Z,70.24
2016-11-18T13:01:52.092Z,69.57
2016-11-18T13:03:01.346Z,69.29
2016-11-18T13:04:10.014Z,69.67
2016-11-18T13:05:19.600Z,69.1
2016-11-18T13:06:28.877Z,68.71
2016-11-18T13:07:37.510Z,69.57
2016-11-18T13:08:47.092Z,68.43
2016-11-18T13:09:56.466Z,70.24
2016-11-18T13:11:05.458Z,69.67
2016-11-18T13:12:14.122Z,69.48
2016-11-18T13:13:22.729Z,69.48
2016-11-18T13:14:32.321Z,68.71
2016-11-18T13:15:41.386Z,69.67
2016-11-18T13:16:50.318Z,68.9
2016-11-18T13:17:59.268Z,67.76
2016-11-18T13:19:07.911Z,67.76
2016-11-18T13:20:16.869Z,67.29
2016-11-18T13:21:26.171Z,68.24
2016-11-18T13:22:35.428Z,68.15
2016-11-18T13:23:44.388Z,69.1
2016-11-18T13:24:53.653Z,68.81
2016-11-18T13:26:02.595Z,68.43
2016-11-18T13:27:12.546Z,68.52
2016-11-18T13:28:21.150Z,68.43
2016-11-18T13:29:30.424Z,68.05
2016-11-18T13:30:39.037Z,68.43
2016-11-18T13:31:47.676Z,68.24
2016-11-18T13:32:56.731Z,68.15
2016-11-18T13:34:05.350Z,68.24
2016-11-18T13:35:14.285Z,68.15
2016-11-18T13:36:22.912Z,68.15
2016-11-18T13:37:32.496Z,68.05
2016-11-18T13:38:41.166Z,68.15
2016-11-18T13:39:50.111Z,68.33
2016-11-18T13:40:59.047Z,67.47
2016-11-18T13:42:07.680Z,67.57
2016-11-18T13:43:16.607Z,67.95
2016-11-18T13:44:25.304Z,68.05
2016-11-18T13:45:33.928Z,67.95
2016-11-18T13:46:43.507Z,67.57
2016-11-18T13:47:52.464Z,67.67
2016-11-18T13:49:01.079Z,67.47
2016-11-18T13:50:10.031Z,67.29
2016-11-18T13:51:19.303Z,66.05
2016-11-18T13:52:28.887Z,66.68
2016-11-18T13:53:37.873Z,66.49
2016-11-18T13:54:46.816Z,66.2
2016-11-18T13:55:55.786Z,66.78
2016-11-18T13:57:04.412Z,69.21
2016-11-18T13:58:13.696Z,69.98
2016-11-18T13:59:22.966Z,70.26
2016-11-18T14:00:31.585Z,69.79
2016-11-18T14:01:40.564Z,70.74
2016-11-18T14:02:49.503Z,70.74
2016-11-18T14:03:58.115Z,69.88
2016-11-18T14:05:06.725Z,70.42
2016-11-18T14:06:15.337Z,69.5
2016-11-18T14:07:24.287Z,69.41
2016-11-18T14:08:33.553Z,70.54
2016-11-18T14:09:42.510Z,71.12
2016-11-18T14:10:51.131Z,71.12
2016-11-18T14:11:59.780Z,70.61
2016-11-18T14:13:09.150Z,70.13
2016-11-18T14:14:17.765Z,69.46
2016-11-18T14:15:27.354Z,68.23
2016-11-18T14:16:36.601Z,68.67
2016-11-18T14:17:45.550Z,70.19
2016-11-18T14:18:54.903Z,71.14
2016-11-18T14:20:03.531Z,72.28
2016-11-18T14:21:12.140Z,73.52
2016-11-18T14:22:21.081Z,76.08
2016-11-18T14:23:30.009Z,77.12
2016-11-18T14:24:38.995Z,76.84
2016-11-18T14:25:47.597Z,77.7
2016-11-18T14:26:56.212Z,77.6
2016-11-18T14:28:05.162Z,77.6
2016-11-18T14:29:14.410Z,77.03
2016-11-18T14:30:23.075Z,76.59
2016-11-18T14:31:32.656Z,75.84
2016-11-18T14:32:41.591Z,75.93
2016-11-18T14:33:50.212Z,76.84
2016-11-18T14:34:59.145Z,76.56
2016-11-18T14:36:08.186Z,77.22
2016-11-18T14:37:17.446Z,77.98
2016-11-18T14:38:27.023Z,78.17
2016-11-18T14:39:35.629Z,78.74
2016-11-18T14:40:44.900Z,77.92
2016-11-18T14:41:53.900Z,78.27
2016-11-18T14:43:03.165Z,78.36
2016-11-18T14:44:11.782Z,78.83
2016-11-18T14:45:20.725Z,77.7
2016-11-18T14:46:29.992Z,77.92
2016-11-18T14:47:39.281Z,79.03
2016-11-18T14:48:48.218Z,79.97
2016-11-18T14:49:56.848Z,79.5
2016-11-18T14:51:06.123Z,79.97
2016-11-18T14:52:15.076Z,79.41
2016-11-18T14:53:24.711Z,79.6
2016-11-18T14:54:34.286Z,79.12
2016-11-18T14:55:42.888Z,77.79
2016-11-18T14:56:52.463Z,78.97